Airfield :
LOGIN :

Register | Disclaimer

   EN    FR    IT 

 










Legend :    VFR   Marginal VFR   IFR   Intensive IFR   Very Intensive IFR
Visi :
Ceiling :
>= 8 km
>= 3000ft
5 to 8 km
1000 to 3000 ft
1500m to 5 km
500 to 1000 ft
800 to 1500m
200 to 500 ft
< 800m
< 200 ft
Symbols :   Thunderstorms  Fog  Heavy snow  Heavy precipitations  Wind > 20 kt
SIGMETs :     Misc.  Thunderstorms  Icing  Turbulence  Mountain Waves  Volcanic Ashes







- Airport Elevation : -15 ft
- IATA code : RTM


EHRD - Rotterdam Zestienhoven

CURRENT METAR :
  • 200855Z AUTO 19010KT 160V220 9999 OVC025 05/04 Q1017 NOSIG

EXPIRED METARs :
  • 200825Z AUTO 20011KT 160V240 9999 OVC028 05/04 Q1017 NOSIG
  • 200755Z AUTO 19010KT 150V230 9999 -DZ FEW015CB SCT032 05/04 Q1017 REDZ NOSIG
  • 200725Z AUTO 19010KT 160V220 9999 +DZRA FEW015CB BKN048 06/04 Q1018 NOSIG
  • 200655Z AUTO 21009KT 150V260 9999 -RA SCT015CB BKN022 OVC025 06/05 Q1018 NOSIG

TAF TAF EHRD
Valid from the 20 at 06:00 until the 21 at 12:00 UTC


200503Z 2006/2112 24007KT 9999 SCT030
BECMG 2006/2008 21012KT 7000 RA BKN015
BECMG 2009/2012 18012KT SCT005 BKN007
PROB30
TEMPO 2012/2015 3000 DZ SCT003 BKN004
BECMG 2015/2018 27015G25KT 9999 NSW BKN015
PROB30
TEMPO 2020/2101 7000 -SHRA FEW008 SCT015TCU
BECMG 2022/2101 26010KT
BECMG 2103/2106 24008KT SCT005 BKN008
TEMPO 2105/2112 3500 -DZ OVC005
No reported NOTAMs for that airfield.



MET'MAP, your aeronautical weather chart ! - Copyright ORBIFLY December 2007 - Disclaimer

ORBIFLY MET'MAP TEAM :

Programming & Development : Alexandra Zaïnal
Concept & Development : Baudouin d'Aumeries
Co-Development & Prog : Marc-Olivier Méhu
Technical & hardware support : Manuel Goepfert

Contact : metmap@orbifly.com




SOURCES & CREDITS :

   NOAA